Time;durP1;ratioP1;P1;durP2;ratioP2;P2;SDS_P1;SDS_P2;PMS_P1;PMS_P2;Temp;Humidity;BMP_temperature;BMP_pressure;BME280_temperature;BME280_humidity;BME280_pressure;Samples;Min_cycle;Max_cycle;Signal;HPM_P1;HPM_P2
2021/07/01 00:01:05;;;;;;;17.65;11.85;;;15.30;99.90;;;;;;5040508;28;20105;-81
2021/07/01 00:03:32;;;;;;;16.85;11.63;;;15.30;99.90;;;;;;5024873;28;20053;-80
2021/07/01 00:05:59;;;;;;;18.30;11.43;;;15.30;99.90;;;;;;5038926;28;20107;-80
2021/07/01 00:08:27;;;;;;;16.38;11.63;;;15.30;99.90;;;;;;5040791;28;20085;-80
2021/07/01 00:10:54;;;;;;;20.83;11.38;;;15.30;99.90;;;;;;5043382;28;20065;-79
2021/07/01 00:13:21;;;;;;;15.20;10.82;;;15.30;99.90;;;;;;5042224;28;20109;-80
2021/07/01 00:15:48;;;;;;;18.75;11.50;;;15.30;99.90;;;;;;5042594;28;20087;-81
2021/07/01 00:18:16;;;;;;;19.00;11.98;;;15.30;99.90;;;;;;5043614;28;20053;-81
2021/07/01 00:20:43;;;;;;;20.33;13.05;;;15.20;99.90;;;;;;5041036;28;20081;-81
2021/07/01 00:23:10;;;;;;;18.00;11.90;;;15.20;99.90;;;;;;5038506;28;20132;-81
2021/07/01 00:25:38;;;;;;;19.10;13.20;;;15.30;99.90;;;;;;5039570;28;20585;-80
2021/07/01 00:28:05;;;;;;;17.45;12.05;;;15.30;99.90;;;;;;5038030;28;20140;-81
2021/07/01 00:30:32;;;;;;;18.15;12.52;;;15.20;99.90;;;;;;5038276;28;20640;-81
2021/07/01 00:32:59;;;;;;;22.98;13.73;;;15.30;99.90;;;;;;5038272;28;20563;-80
2021/07/01 00:35:26;;;;;;;20.77;13.50;;;15.30;99.90;;;;;;5038220;28;20083;-81
2021/07/01 00:37:53;;;;;;;26.67;14.68;;;15.30;99.90;;;;;;5037503;28;20118;-81
2021/07/01 00:40:20;;;;;;;24.23;14.15;;;15.30;99.90;;;;;;5037947;28;20136;-80
2021/07/01 00:42:48;;;;;;;21.70;14.95;;;15.40;99.90;;;;;;5037218;28;20191;-81
2021/07/01 00:45:15;;;;;;;20.67;14.68;;;15.30;99.90;;;;;;5037842;28;20087;-79
2021/07/01 00:47:42;;;;;;;27.05;15.05;;;15.40;99.90;;;;;;5022611;28;20106;-80
2021/07/01 00:50:11;;;;;;;24.60;15.68;;;15.40;99.90;;;;;;5022090;28;20045;-80
2021/07/01 00:52:39;;;;;;;25.55;15.30;;;15.30;99.90;;;;;;5036930;28;20158;-80
2021/07/01 00:55:08;;;;;;;24.63;16.85;;;15.40;99.90;;;;;;5036597;28;20504;-81
2021/07/01 00:57:35;;;;;;;22.25;16.23;;;15.40;99.90;;;;;;5039589;28;20597;-79
2021/07/01 01:00:23;;;;;;;26.02;16.40;;;15.40;99.90;;;;;;5039806;28;20573;-80
2021/07/01 01:02:53;;;;;;;25.38;17.45;;;15.30;99.90;;;;;;5041198;28;20521;-80
2021/07/01 01:05:20;;;;;;;26.10;17.63;;;15.20;99.90;;;;;;5040057;28;20116;-81
2021/07/01 01:07:47;;;;;;;24.65;18.00;;;15.20;99.90;;;;;;5046013;28;20067;-78
2021/07/01 01:10:14;;;;;;;23.10;17.50;;;15.20;99.90;;;;;;5055957;28;20128;-80
2021/07/01 01:12:41;;;;;;;27.33;17.85;;;15.10;99.90;;;;;;5046769;28;20045;-79
2021/07/01 01:15:11;;;;;;;26.25;16.83;;;15.10;99.90;;;;;;5044625;28;20084;-82
2021/07/01 01:17:38;;;;;;;22.40;16.70;;;15.00;99.90;;;;;;5042577;28;20132;-81
2021/07/01 01:20:06;;;;;;;24.27;16.83;;;15.00;99.90;;;;;;5040743;28;20042;-81
2021/07/01 01:22:34;;;;;;;21.20;14.82;;;15.00;99.90;;;;;;5037991;28;20112;-80
2021/07/01 01:25:01;;;;;;;25.45;16.60;;;15.00;99.90;;;;;;5036709;28;20045;-80
2021/07/01 01:27:28;;;;;;;23.10;16.02;;;15.00;99.90;;;;;;5042232;28;20081;-79
2021/07/01 01:29:55;;;;;;;21.27;15.20;;;15.00;99.90;;;;;;5041596;28;20077;-81
2021/07/01 01:32:22;;;;;;;21.17;14.63;;;15.00;99.90;;;;;;5041941;28;20114;-79
2021/07/01 01:34:49;;;;;;;19.63;14.93;;;15.10;99.90;;;;;;5039242;28;20057;-80
2021/07/01 01:37:16;;;;;;;22.38;14.32;;;15.10;99.90;;;;;;5039100;28;20088;-79
2021/07/01 01:39:48;;;;;;;19.92;13.88;;;15.10;99.90;;;;;;5041336;28;20128;-79
2021/07/01 01:42:15;;;;;;;20.42;14.63;;;15.20;99.90;;;;;;5040889;28;20095;-80
2021/07/01 01:44:42;;;;;;;22.30;13.88;;;15.10;99.90;;;;;;5040726;28;20077;-79
2021/07/01 01:47:15;;;;;;;18.40;13.68;;;15.10;99.90;;;;;;5042059;28;20112;-79
2021/07/01 01:49:44;;;;;;;21.08;13.95;;;15.10;99.90;;;;;;5040621;28;20117;-78
2021/07/01 01:52:11;;;;;;;18.38;13.85;;;15.10;99.90;;;;;;5043100;28;20084;-78
2021/07/01 01:54:38;;;;;;;22.08;13.57;;;15.10;99.90;;;;;;5042403;28;20140;-80
2021/07/01 01:57:06;;;;;;;18.20;13.05;;;15.00;99.90;;;;;;5042834;28;20053;-80
2021/07/01 01:59:33;;;;;;;20.70;13.32;;;15.00;99.90;;;;;;5023461;28;20046;-81
2021/07/01 02:02:01;;;;;;;23.10;13.25;;;15.00;99.90;;;;;;5042185;28;20128;-79
2021/07/01 02:04:28;;;;;;;24.25;14.70;;;15.00;99.90;;;;;;5040473;28;20148;-80
2021/07/01 02:06:55;;;;;;;22.90;12.98;;;14.90;99.90;;;;;;5040573;28;20134;-80
2021/07/01 02:09:22;;;;;;;23.35;13.13;;;15.00;99.90;;;;;;5038647;28;20648;-81
2021/07/01 02:11:49;;;;;;;16.55;13.00;;;15.00;99.90;;;;;;5040373;28;20132;-81
2021/07/01 02:14:18;;;;;;;19.83;12.63;;;15.00;99.90;;;;;;5039704;28;20049;-82
2021/07/01 02:16:45;;;;;;;24.02;13.77;;;15.00;99.90;;;;;;5040277;28;20081;-81
2021/07/01 02:19:11;;;;;;;20.63;14.38;;;15.00;99.90;;;;;;5041049;28;20092;-81
2021/07/01 02:21:38;;;;;;;16.48;13.50;;;14.90;99.90;;;;;;5041424;28;20080;-82
2021/07/01 02:24:05;;;;;;;23.67;14.98;;;14.90;99.90;;;;;;5040060;28;20049;-81
2021/07/01 02:26:32;;;;;;;21.73;15.00;;;15.00;99.90;;;;;;5041481;28;20060;-81
2021/07/01 02:28:59;;;;;;;23.67;15.05;;;14.90;99.90;;;;;;5041152;28;20092;-82
2021/07/01 02:31:27;;;;;;;22.55;15.73;;;14.90;99.90;;;;;;5040246;28;20092;-82
2021/07/01 02:33:54;;;;;;;22.08;14.75;;;15.00;99.90;;;;;;5039478;28;20057;-80
2021/07/01 02:36:21;;;;;;;25.38;15.93;;;15.00;99.90;;;;;;5040040;28;20125;-81
2021/07/01 02:38:48;;;;;;;21.42;15.15;;;14.90;99.90;;;;;;5039979;28;20121;-81
2021/07/01 02:41:15;;;;;;;20.58;16.23;;;15.00;99.90;;;;;;5039257;28;20092;-80
2021/07/01 02:43:41;;;;;;;24.60;16.65;;;14.90;99.90;;;;;;5039452;28;20117;-80
2021/07/01 02:46:08;;;;;;;19.90;15.82;;;14.90;99.90;;;;;;5041996;28;20096;-80
2021/07/01 02:48:36;;;;;;;22.20;16.58;;;14.90;99.90;;;;;;5042718;28;20092;-81
2021/07/01 02:51:03;;;;;;;22.30;15.95;;;14.90;99.90;;;;;;5043053;28;20072;-80
2021/07/01 02:53:30;;;;;;;21.73;16.45;;;14.90;99.90;;;;;;5030933;28;20153;-80
2021/07/01 02:55:57;;;;;;;21.88;15.70;;;14.90;99.90;;;;;;5041402;28;20076;-80
2021/07/01 02:58:24;;;;;;;24.63;16.92;;;14.80;99.90;;;;;;5043624;28;20050;-80
2021/07/01 03:00:51;;;;;;;25.42;17.00;;;14.90;99.90;;;;;;5042582;28;20085;-80
2021/07/01 03:03:18;;;;;;;21.58;16.42;;;14.90;99.90;;;;;;5041733;28;20085;-80
2021/07/01 03:05:46;;;;;;;23.05;16.13;;;14.90;99.90;;;;;;5042221;23;20053;-80
2021/07/01 03:08:13;;;;;;;24.38;17.13;;;14.90;99.90;;;;;;5038289;28;20053;-79
2021/07/01 03:10:40;;;;;;;22.40;16.23;;;14.90;99.90;;;;;;5028951;28;20045;-80
2021/07/01 03:13:07;;;;;;;23.63;17.67;;;14.90;99.90;;;;;;5029368;28;20073;-81
2021/07/01 03:15:34;;;;;;;22.52;17.35;;;14.80;99.90;;;;;;5029174;28;20565;-80
2021/07/01 03:18:01;;;;;;;20.17;16.40;;;14.90;99.90;;;;;;5038338;28;20111;-80
2021/07/01 03:20:28;;;;;;;21.50;17.30;;;14.80;99.90;;;;;;5045120;28;20077;-81
2021/07/01 03:22:56;;;;;;;24.55;16.90;;;14.80;99.90;;;;;;5047148;28;20053;-79
2021/07/01 03:25:23;;;;;;;22.92;17.15;;;14.70;99.90;;;;;;5040225;28;20046;-81
2021/07/01 03:27:50;;;;;;;25.67;17.65;;;14.70;99.90;;;;;;5031136;28;20111;-81
2021/07/01 03:30:19;;;;;;;23.55;17.08;;;14.70;99.90;;;;;;5038571;28;20105;-80
2021/07/01 03:32:46;;;;;;;25.98;16.63;;;14.70;99.90;;;;;;5038719;28;20076;-79
2021/07/01 03:35:13;;;;;;;22.27;17.08;;;14.70;99.90;;;;;;5035228;28;20077;-79
2021/07/01 03:37:42;;;;;;;22.02;15.82;;;14.80;99.90;;;;;;5018192;28;20050;-82
2021/07/01 03:40:17;;;;;;;22.50;15.63;;;14.90;99.90;;;;;;5017638;28;20157;-81
2021/07/01 03:42:44;;;;;;;22.23;15.05;;;14.90;99.90;;;;;;5022487;28;20049;-83
2021/07/01 03:45:15;;;;;;;25.20;16.60;;;14.80;99.90;;;;;;5035817;28;20093;-82
2021/07/01 03:47:42;;;;;;;28.42;16.05;;;14.80;99.90;;;;;;5037271;28;20049;-80
2021/07/01 03:50:10;;;;;;;22.38;17.33;;;14.80;99.90;;;;;;5035755;28;20046;-78
2021/07/01 03:52:37;;;;;;;23.40;17.80;;;14.80;99.90;;;;;;5034666;28;20494;-79
2021/07/01 03:55:05;;;;;;;28.23;18.15;;;14.70;99.90;;;;;;5033933;28;20092;-79
2021/07/01 03:57:33;;;;;;;27.85;18.25;;;14.70;99.90;;;;;;5033785;28;20562;-79
2021/07/01 04:00:02;;;;;;;31.17;20.27;;;14.80;99.90;;;;;;5033302;28;20099;-79
2021/07/01 04:02:29;;;;;;;31.73;22.17;;;14.70;99.90;;;;;;5033311;28;20041;-79
2021/07/01 04:04:56;;;;;;;33.10;21.58;;;14.60;99.90;;;;;;5032766;28;20469;-78
2021/07/01 04:07:23;;;;;;;29.73;21.35;;;14.60;99.90;;;;;;5033131;28;20155;-79
2021/07/01 04:09:50;;;;;;;28.20;20.15;;;14.60;99.90;;;;;;5033095;28;20137;-79
2021/07/01 04:12:16;;;;;;;28.10;21.40;;;14.60;99.90;;;;;;5033873;28;20053;-79
2021/07/01 04:14:45;;;;;;;27.77;20.50;;;14.60;99.90;;;;;;5034104;28;20137;-79
2021/07/01 04:17:12;;;;;;;32.13;22.10;;;14.50;99.90;;;;;;5034077;28;20073;-79
2021/07/01 04:19:38;;;;;;;32.47;21.30;;;14.60;99.90;;;;;;5033437;28;20438;-78
2021/07/01 04:22:05;;;;;;;31.50;21.75;;;14.60;99.90;;;;;;5032524;28;20136;-78
2021/07/01 04:24:32;;;;;;;31.83;22.13;;;14.60;99.90;;;;;;5033061;28;20128;-78
2021/07/01 04:26:59;;;;;;;27.05;20.67;;;14.70;99.90;;;;;;5034665;28;20132;-77
2021/07/01 04:29:26;;;;;;;30.48;21.13;;;14.70;99.90;;;;;;5042337;28;20045;-78
2021/07/01 04:31:54;;;;;;;31.83;21.75;;;14.80;99.90;;;;;;5041978;28;20208;-78
2021/07/01 04:34:21;;;;;;;31.13;21.90;;;14.80;99.90;;;;;;5040546;28;20470;-78
2021/07/01 04:36:48;;;;;;;32.30;21.02;;;14.80;99.90;;;;;;5035893;28;20144;-78
2021/07/01 04:39:14;;;;;;;29.42;21.35;;;14.80;99.90;;;;;;5039708;28;20145;-78
2021/07/01 04:41:41;;;;;;;31.00;22.02;;;14.80;99.90;;;;;;5043109;28;20081;-78
2021/07/01 04:44:08;;;;;;;34.92;21.60;;;14.80;99.90;;;;;;5044147;28;20053;-78
2021/07/01 04:46:35;;;;;;;38.30;21.30;;;14.90;99.90;;;;;;5040433;28;20057;-78
2021/07/01 04:49:04;;;;;;;28.60;19.85;;;14.80;99.90;;;;;;5037355;28;20116;-80
2021/07/01 04:51:30;;;;;;;28.98;20.13;;;14.80;99.90;;;;;;5038559;28;20045;-79
2021/07/01 04:53:58;;;;;;;27.95;20.38;;;14.90;99.90;;;;;;5037722;28;20462;-80
2021/07/01 04:56:25;;;;;;;33.95;20.55;;;14.90;99.90;;;;;;5037297;28;20141;-80
2021/07/01 04:58:51;;;;;;;29.60;21.10;;;14.90;99.90;;;;;;5037361;28;20136;-80
2021/07/01 05:01:20;;;;;;;34.60;20.23;;;14.90;99.90;;;;;;5036067;28;20112;-80
2021/07/01 05:03:47;;;;;;;26.45;19.67;;;14.90;99.90;;;;;;5037459;28;20092;-80
2021/07/01 05:06:15;;;;;;;27.15;18.77;;;14.90;99.90;;;;;;5038074;28;20064;-79
2021/07/01 05:08:42;;;;;;;29.13;19.25;;;15.00;99.90;;;;;;5038347;28;20478;-79
2021/07/01 05:11:09;;;;;;;30.30;18.98;;;15.00;99.90;;;;;;5037835;28;20133;-79
2021/07/01 05:13:36;;;;;;;31.52;19.60;;;15.00;99.90;;;;;;5038232;28;20084;-82
2021/07/01 05:16:03;;;;;;;28.27;19.77;;;15.10;99.90;;;;;;5041108;28;20049;-81
2021/07/01 05:18:30;;;;;;;33.20;20.23;;;15.10;99.90;;;;;;5039970;28;20464;-80
2021/07/01 05:20:57;;;;;;;31.75;19.70;;;15.10;99.90;;;;;;5039677;28;20548;-80
2021/07/01 05:23:25;;;;;;;29.85;19.73;;;15.10;99.90;;;;;;5038715;28;20073;-80
2021/07/01 05:25:52;;;;;;;32.53;19.65;;;15.10;99.90;;;;;;5038633;28;20100;-81
2021/07/01 05:28:18;;;;;;;37.55;20.75;;;15.10;99.90;;;;;;5038200;28;20108;-81
2021/07/01 05:30:46;;;;;;;31.85;19.90;;;15.10;99.90;;;;;;5036057;28;20499;-79
2021/07/01 05:33:13;;;;;;;35.80;20.35;;;15.10;99.90;;;;;;5037221;28;20109;-80
2021/07/01 05:35:40;;;;;;;32.70;20.13;;;15.10;99.90;;;;;;5038156;28;20053;-81
2021/07/01 05:38:07;;;;;;;33.78;20.73;;;15.00;99.90;;;;;;5037182;28;20293;-80
2021/07/01 05:40:35;;;;;;;30.98;20.30;;;15.00;99.90;;;;;;5038142;28;20105;-81
2021/07/01 05:43:03;;;;;;;30.77;21.20;;;15.10;99.90;;;;;;5039913;28;20073;-80
2021/07/01 05:45:30;;;;;;;38.08;20.52;;;15.10;99.90;;;;;;5050208;28;20060;-80
2021/07/01 05:47:57;;;;;;;38.28;20.35;;;15.10;99.90;;;;;;5047494;28;20077;-81
2021/07/01 05:50:24;;;;;;;35.03;22.95;;;15.10;99.90;;;;;;5042921;28;20077;-80
2021/07/01 05:52:57;;;;;;;33.97;22.58;;;15.10;99.90;;;;;;5042264;28;20099;-80
2021/07/01 05:55:24;;;;;;;36.80;22.05;;;15.10;99.90;;;;;;5042553;28;20493;-80
2021/07/01 05:57:53;;;;;;;36.20;20.30;;;15.10;99.90;;;;;;5039808;28;20095;-79
2021/07/01 06:00:20;;;;;;;33.53;21.02;;;15.10;99.90;;;;;;5038274;28;20099;-80
2021/07/01 06:02:47;;;;;;;32.67;20.35;;;15.10;99.90;;;;;;5036266;28;20048;-78
2021/07/01 06:05:15;;;;;;;32.53;21.38;;;15.10;99.90;;;;;;5033719;28;20057;-78
2021/07/01 06:07:47;;;;;;;30.45;19.90;;;15.10;99.90;;;;;;5034233;28;20446;-79
2021/07/01 06:10:18;;;;;;;30.05;19.08;;;15.00;99.90;;;;;;5034271;28;20492;-79
2021/07/01 06:12:45;;;;;;;34.25;20.55;;;15.10;99.90;;;;;;5035318;28;20483;-80
2021/07/01 06:15:14;;;;;;;33.13;21.00;;;15.10;99.90;;;;;;5037138;28;20136;-80
2021/07/01 06:17:43;;;;;;;33.72;20.42;;;15.10;99.90;;;;;;5036406;28;20050;-79
2021/07/01 06:20:12;;;;;;;33.50;19.40;;;15.10;99.90;;;;;;5036278;28;20128;-80
2021/07/01 06:22:41;;;;;;;29.95;16.33;;;15.20;99.90;;;;;;5035949;28;20105;-79
2021/07/01 06:25:09;;;;;;;25.98;16.27;;;15.20;99.90;;;;;;5036399;28;20052;-80
2021/07/01 06:27:38;;;;;;;25.55;15.63;;;15.20;99.90;;;;;;5039992;28;20133;-80
2021/07/01 06:30:09;;;;;;;28.08;14.50;;;15.20;99.90;;;;;;5036780;28;20080;-80
2021/07/01 06:32:44;;;;;;;23.58;14.35;;;15.10;99.90;;;;;;5035787;28;20076;-80
2021/07/01 06:35:12;;;;;;;23.58;14.63;;;15.00;99.90;;;;;;5036079;28;20046;-79
2021/07/01 06:37:40;;;;;;;26.65;15.85;;;15.00;99.90;;;;;;5035460;28;20136;-80
2021/07/01 06:40:09;;;;;;;24.45;14.57;;;14.90;99.90;;;;;;5035141;28;20071;-79
2021/07/01 06:42:43;;;;;;;26.92;15.70;;;14.90;99.90;;;;;;5034878;28;20136;-80
2021/07/01 06:45:11;;;;;;;21.02;14.15;;;14.80;99.90;;;;;;5035007;28;20136;-79
2021/07/01 06:47:43;;;;;;;23.40;14.50;;;14.80;99.90;;;;;;5034215;28;20144;-79
2021/07/01 06:50:12;;;;;;;20.00;14.35;;;14.80;99.90;;;;;;5034490;28;20084;-79
2021/07/01 06:52:39;;;;;;;24.60;15.23;;;14.80;99.90;;;;;;5035465;28;20129;-80
2021/07/01 06:55:07;;;;;;;20.88;14.30;;;14.80;99.90;;;;;;5038144;28;20053;-79
2021/07/01 06:57:37;;;;;;;26.73;14.05;;;14.80;99.90;;;;;;5039585;28;20053;-79
2021/07/01 07:00:06;;;;;;;25.83;14.07;;;14.80;99.90;;;;;;5036671;28;20136;-80
2021/07/01 07:02:34;;;;;;;23.90;14.98;;;14.80;99.90;;;;;;5026679;28;20045;-79
2021/07/01 07:05:04;;;;;;;25.98;15.05;;;14.80;99.90;;;;;;5008549;28;20053;-82
2021/07/01 07:07:32;;;;;;;23.00;14.10;;;14.80;99.90;;;;;;5017151;28;20053;-79
2021/07/01 07:10:03;;;;;;;26.00;14.63;;;14.80;99.90;;;;;;5011148;28;20119;-78
2021/07/01 07:12:30;;;;;;;25.80;13.70;;;14.80;99.90;;;;;;5014091;28;20050;-81
2021/07/01 07:14:57;;;;;;;13.80;10.85;;;14.90;99.90;;;;;;5012210;28;20061;-78
2021/07/01 07:17:28;;;;;;;22.60;11.05;;;14.90;99.90;;;;;;5013806;28;20057;-80
2021/07/01 07:19:57;;;;;;;22.10;10.23;;;14.80;99.90;;;;;;5018328;28;20077;-80
2021/07/01 07:22:29;;;;;;;16.92;9.90;;;14.80;99.90;;;;;;5017005;28;20058;-77
2021/07/01 07:25:01;;;;;;;17.52;10.10;;;14.80;99.90;;;;;;5017411;28;20101;-78
2021/07/01 07:27:31;;;;;;;18.23;10.45;;;14.80;99.90;;;;;;5015414;28;20426;-82
2021/07/01 07:29:58;;;;;;;19.15;10.73;;;14.90;99.90;;;;;;5016950;28;20073;-80
2021/07/01 07:32:28;;;;;;;22.23;10.80;;;14.90;99.90;;;;;;5019480;28;20081;-80
2021/07/01 07:34:55;;;;;;;21.30;10.90;;;14.90;99.90;;;;;;5019303;28;20046;-81
2021/07/01 07:37:25;;;;;;;19.58;11.13;;;15.00;99.90;;;;;;5019934;28;20109;-81
2021/07/01 07:39:56;;;;;;;20.15;11.00;;;15.00;99.90;;;;;;5019662;28;20068;-80
2021/07/01 07:42:23;;;;;;;19.08;10.27;;;15.00;99.90;;;;;;5020124;28;20052;-81
2021/07/01 07:44:49;;;;;;;21.35;11.82;;;15.10;99.90;;;;;;5018879;28;20073;-81
2021/07/01 07:47:17;;;;;;;21.67;11.60;;;15.10;99.90;;;;;;5018295;28;20086;-80
2021/07/01 07:49:43;;;;;;;20.20;11.07;;;15.20;99.90;;;;;;5017398;28;20148;-82
2021/07/01 07:52:13;;;;;;;22.80;10.65;;;15.20;99.90;;;;;;5017559;28;20109;-80
2021/07/01 07:54:52;;;;;;;20.55;11.48;;;15.30;99.90;;;;;;5018014;28;20053;-81
2021/07/01 07:57:22;;;;;;;22.80;11.35;;;15.30;99.90;;;;;;5019473;28;20060;-81
2021/07/01 07:59:51;;;;;;;19.60;11.35;;;15.40;99.90;;;;;;5019486;28;20053;-81
2021/07/01 08:02:32;;;;;;;19.88;11.35;;;15.40;99.90;;;;;;5018844;28;20054;-81
2021/07/01 08:05:01;;;;;;;15.80;10.90;;;15.40;99.90;;;;;;5018470;28;20141;-80
2021/07/01 08:07:30;;;;;;;14.80;10.43;;;15.60;99.90;;;;;;5018591;28;20080;-80
2021/07/01 08:10:00;;;;;;;16.25;10.18;;;15.80;99.90;;;;;;5019475;28;20105;-79
2021/07/01 08:12:31;;;;;;;19.25;10.30;;;15.80;99.90;;;;;;5018318;28;20050;-80
2021/07/01 08:15:00;;;;;;;21.20;10.48;;;15.80;99.90;;;;;;5018698;28;20073;-80
2021/07/01 08:17:28;;;;;;;19.67;10.45;;;15.80;99.90;;;;;;5016152;28;20092;-79
2021/07/01 08:19:56;;;;;;;21.33;10.30;;;15.80;99.90;;;;;;5015632;28;20312;-79
2021/07/01 08:22:23;;;;;;;16.85;10.10;;;15.90;99.90;;;;;;5016312;28;20533;-80
2021/07/01 08:24:53;;;;;;;20.80;10.13;;;15.90;99.90;;;;;;5053475;22;20136;-79
2021/07/01 08:27:41;;;;;;;14.90;10.48;;;16.00;99.90;;;;;;5044422;28;20456;-80
2021/07/01 08:30:09;;;;;;;15.57;10.32;;;16.10;99.90;;;;;;5058671;28;20060;-81
2021/07/01 08:32:47;;;;;;;16.85;9.90;;;16.20;99.90;;;;;;5043498;28;20072;-82
2021/07/01 08:38:07;;;;;;;17.67;9.35;;;16.10;99.90;;;;;;5036077;28;20053;-81
2021/07/01 08:40:35;;;;;;;12.63;8.70;;;16.10;99.90;;;;;;5067116;23;20075;-81
2021/07/01 08:43:07;;;;;;;14.85;9.85;;;16.00;99.90;;;;;;5043430;28;20080;-82
2021/07/01 08:45:51;;;;;;;16.60;9.73;;;16.00;99.90;;;;;;5061394;28;20052;-81
2021/07/01 08:48:22;;;;;;;19.98;11.10;;;16.00;99.90;;;;;;5061519;28;20296;-82
2021/07/01 08:50:54;;;;;;;15.95;10.13;;;15.90;99.90;;;;;;5061118;28;20067;-81
2021/07/01 08:53:47;;;;;;;15.70;10.50;;;15.90;99.90;;;;;;5060044;28;20060;-81
2021/07/01 08:56:17;;;;;;;21.25;11.35;;;15.90;99.90;;;;;;5061287;28;20057;-81
2021/07/01 08:58:48;;;;;;;16.48;10.95;;;15.80;99.90;;;;;;5059236;28;20064;-80
2021/07/01 09:01:18;;;;;;;18.95;12.60;;;15.90;99.90;;;;;;5059007;28;20053;-82
2021/07/01 09:03:47;;;;;;;21.58;12.75;;;16.00;99.90;;;;;;5056314;28;20137;-81
2021/07/01 09:06:23;;;;;;;20.60;11.90;;;16.10;99.90;;;;;;5056401;28;20117;-82
2021/07/01 09:08:52;;;;;;;19.67;11.52;;;16.20;99.90;;;;;;5056374;28;20056;-81
2021/07/01 09:11:21;;;;;;;17.27;11.68;;;16.30;99.90;;;;;;5056445;28;20131;-81
2021/07/01 09:13:51;;;;;;;22.77;13.70;;;16.40;99.90;;;;;;5055930;28;20049;-79
2021/07/01 09:16:18;;;;;;;19.20;12.07;;;16.40;99.90;;;;;;5057200;28;20056;-79
2021/07/01 09:18:46;;;;;;;19.10;11.48;;;16.50;99.90;;;;;;5061685;28;20125;-80
2021/07/01 09:21:14;;;;;;;16.08;10.95;;;16.50;99.90;;;;;;5063669;28;20100;-81
2021/07/01 09:23:45;;;;;;;14.80;9.55;;;16.60;99.90;;;;;;5063345;28;20045;-82
2021/07/01 09:26:20;;;;;;;17.57;9.47;;;16.60;99.90;;;;;;5064125;28;20041;-82
2021/07/01 09:28:50;;;;;;;17.55;9.77;;;16.70;99.90;;;;;;5062845;28;20315;-82
2021/07/01 09:31:20;;;;;;;21.27;10.40;;;16.60;99.90;;;;;;5064043;28;20072;-82
2021/07/01 09:33:49;;;;;;;15.32;9.43;;;16.60;99.90;;;;;;5063121;28;20113;-82
2021/07/01 09:36:19;;;;;;;15.43;10.10;;;16.50;99.90;;;;;;5064422;28;20080;-81
2021/07/01 09:38:51;;;;;;;15.45;10.40;;;16.50;99.90;;;;;;5063477;28;20048;-82
2021/07/01 09:41:23;;;;;;;21.75;10.63;;;16.50;99.90;;;;;;5063054;28;20056;-81
2021/07/01 09:44:20;;;;;;;17.73;10.60;;;16.40;99.90;;;;;;5062335;28;20084;-82
2021/07/01 09:46:51;;;;;;;21.83;10.82;;;16.20;99.90;;;;;;5054322;28;20064;-81
2021/07/01 09:49:29;;;;;;;19.27;11.90;;;16.00;99.90;;;;;;5063954;28;20525;-82
2021/07/01 09:52:04;;;;;;;21.48;11.05;;;16.00;99.90;;;;;;5065375;28;20484;-82
2021/07/01 09:54:34;;;;;;;18.67;10.93;;;15.90;99.90;;;;;;5065317;28;20103;-83
2021/07/01 09:57:06;;;;;;;17.98;11.10;;;15.80;99.90;;;;;;5063679;28;20048;-82
2021/07/01 09:59:46;;;;;;;19.08;11.27;;;15.80;99.90;;;;;;5061787;28;20099;-82
2021/07/01 10:02:18;;;;;;;16.90;10.65;;;15.80;99.90;;;;;;5062154;28;20057;-82
2021/07/01 10:04:47;;;;;;;16.73;9.70;;;15.80;99.90;;;;;;5060790;28;20078;-82
2021/07/01 10:07:16;;;;;;;18.60;10.15;;;15.80;99.90;;;;;;5047892;28;20057;-81
2021/07/01 10:09:44;;;;;;;18.13;10.23;;;15.70;99.90;;;;;;5041297;28;20057;-82
2021/07/01 10:12:16;;;;;;;16.13;10.52;;;15.80;99.90;;;;;;5038957;28;20045;-80
2021/07/01 10:14:45;;;;;;;17.60;10.35;;;15.80;99.90;;;;;;5034411;28;20041;-82
2021/07/01 10:17:14;;;;;;;17.80;10.35;;;15.80;99.90;;;;;;5037198;28;20064;-81
2021/07/01 10:19:43;;;;;;;15.40;10.00;;;15.90;99.90;;;;;;5027815;28;20041;-82
2021/07/01 10:22:11;;;;;;;15.05;10.02;;;15.90;99.90;;;;;;5043412;28;20084;-81
2021/07/01 10:24:54;;;;;;;14.68;10.02;;;16.00;99.90;;;;;;5044149;28;20122;-81
2021/07/01 10:27:33;;;;;;;12.68;10.05;;;16.00;99.90;;;;;;5026577;28;20050;-78
2021/07/01 10:30:12;;;;;;;12.38;9.18;;;15.90;99.90;;;;;;5039887;28;20060;-81
2021/07/01 10:32:43;;;;;;;15.88;10.23;;;15.90;99.90;;;;;;5037856;28;20045;-81
2021/07/01 10:35:26;;;;;;;19.15;10.57;;;15.80;99.90;;;;;;5034794;28;20126;-81
2021/07/01 10:38:13;;;;;;;;;;;15.90;99.90;;;;;;5035366;28;20055;-82
2021/07/01 10:40:44;;;;;;;15.55;10.43;;;15.90;99.90;;;;;;5029107;28;19928;-81
2021/07/01 10:43:11;;;;;;;13.80;10.52;;;15.90;99.90;;;;;;5038964;28;20046;-80
2021/07/01 10:45:52;;;;;;;14.70;10.88;;;15.90;99.90;;;;;;5031830;28;20137;-78
2021/07/01 10:48:20;;;;;;;12.98;10.05;;;16.10;99.90;;;;;;5035441;28;20053;-80
2021/07/01 10:50:49;;;;;;;16.98;10.45;;;16.20;99.90;;;;;;5038613;28;20073;-79
2021/07/01 10:53:37;;;;;;;18.30;10.70;;;16.30;99.90;;;;;;5038608;28;20041;-80
2021/07/01 10:56:40;;;;;;;17.85;10.98;;;16.30;99.90;;;;;;5040437;28;20049;-80
2021/07/01 10:59:07;;;;;;;16.17;10.32;;;16.40;99.90;;;;;;5034365;28;20072;-81
2021/07/01 11:01:38;;;;;;;14.65;9.55;;;16.40;99.90;;;;;;5036614;28;20277;-80
2021/07/01 11:04:08;;;;;;;13.98;9.48;;;16.40;99.90;;;;;;5045466;28;20060;-82
2021/07/01 11:06:36;;;;;;;13.40;8.93;;;16.50;99.90;;;;;;5039987;28;20092;-81
2021/07/01 11:09:07;;;;;;;15.23;9.88;;;16.50;99.90;;;;;;5038288;28;20117;-80
2021/07/01 11:11:38;;;;;;;13.73;9.93;;;16.50;99.90;;;;;;5041923;28;20041;-81
2021/07/01 11:14:07;;;;;;;19.13;10.50;;;16.50;99.90;;;;;;5034797;28;20069;-82
2021/07/01 11:16:38;;;;;;;13.50;9.38;;;16.70;99.90;;;;;;5031108;28;20048;-80
2021/07/01 11:19:12;;;;;;;15.30;10.13;;;16.80;99.90;;;;;;5032314;28;20057;-81
2021/07/01 11:21:49;;;;;;;14.25;9.63;;;16.80;99.90;;;;;;5023936;28;20061;-82
2021/07/01 11:24:25;;;;;;;12.60;9.80;;;16.80;99.90;;;;;;5026866;28;20069;-82
2021/07/01 11:26:57;;;;;;;16.98;9.68;;;16.80;99.90;;;;;;5025541;28;20038;-81
2021/07/01 11:29:50;;;;;;;17.95;9.75;;;16.80;99.90;;;;;;5025371;28;20094;-81
2021/07/01 11:32:47;;;;;;;17.63;10.25;;;16.70;99.90;;;;;;5031465;28;20054;-82
2021/07/01 11:35:26;;;;;;;13.73;10.07;;;16.70;99.90;;;;;;5029561;28;20074;-79
2021/07/01 11:38:01;;;;;;;13.55;9.60;;;16.70;99.90;;;;;;5028604;28;20076;-79
2021/07/01 11:40:37;;;;;;;11.52;8.60;;;16.60;99.90;;;;;;5028317;28;20080;-79
2021/07/01 11:43:04;;;;;;;16.90;9.00;;;16.70;99.90;;;;;;5028621;28;20105;-82
2021/07/01 11:49:30;;;;;;;18.83;9.68;;;16.50;99.90;;;;;;5012151;28;20056;-81
2021/07/01 11:52:09;;;;;;;12.00;9.25;;;16.40;99.90;;;;;;4955760;28;20579;-81
2021/07/01 12:00:58;;;;;;;18.05;9.90;;;16.40;99.90;;;;;;4943370;28;20482;-80
2021/07/01 12:03:32;;;;;;;16.58;10.55;;;16.40;99.90;;;;;;5014663;28;20057;-82
2021/07/01 12:06:05;;;;;;;22.85;11.45;;;16.30;99.90;;;;;;5022635;28;20053;-78
2021/07/01 12:08:36;;;;;;;20.95;12.90;;;16.30;99.90;;;;;;5022455;28;20058;-80
2021/07/01 12:12:01;;;;;;;16.80;11.18;;;16.40;99.90;;;;;;5021679;28;20056;-81
2021/07/01 12:14:55;;;;;;;20.40;13.07;;;16.40;99.90;;;;;;5021483;28;20108;-81
2021/07/01 12:18:04;;;;;;;18.05;12.98;;;16.10;99.90;;;;;;5022754;28;20050;-81
2021/07/01 12:20:54;;;;;;;18.55;13.85;;;16.00;99.90;;;;;;5027671;28;20054;-81
2021/07/01 12:23:48;;;;;;;23.02;13.38;;;16.00;99.90;;;;;;5025977;28;20395;-82
2021/07/01 12:26:52;;;;;;;23.95;13.10;;;16.10;99.90;;;;;;5035805;28;20125;-82
2021/07/01 12:33:03;;;;;;;18.20;11.85;;;16.10;99.90;;;;;;5034734;28;20046;-80
2021/07/01 12:35:52;;;;;;;13.65;10.32;;;16.30;99.90;;;;;;5015323;28;20070;-82
2021/07/01 12:41:28;;;;;;;20.00;11.60;;;16.50;99.90;;;;;;5021138;28;20045;-82
2021/07/01 12:47:12;;;;;;;18.02;11.93;;;16.30;99.90;;;;;;5021258;28;20088;-82
2021/07/01 12:50:22;;;;;;;16.83;12.60;;;16.30;99.90;;;;;;5023515;28;20062;-82
2021/07/01 12:53:28;;;;;;;19.38;11.77;;;16.30;99.90;;;;;;5017044;28;20058;-82
2021/07/01 12:57:05;;;;;;;20.02;13.32;;;16.30;99.90;;;;;;5011911;28;20049;-82
2021/07/01 13:00:28;;;;;;;19.10;15.55;;;16.20;99.90;;;;;;5020246;28;20469;-83
2021/07/01 13:03:00;;;;;;;;;;;16.20;99.90;;;;;;5022532;28;20320;-80
2021/07/01 13:05:38;;;;;;;23.55;15.80;;;16.00;99.90;;;;;;5022789;28;19921;-81
2021/07/01 13:11:26;;;;;;;25.23;18.00;;;16.00;99.90;;;;;;4983216;28;20050;-80
2021/07/01 13:14:03;;;;;;;23.33;17.50;;;16.10;99.90;;;;;;5021687;28;20060;-80